Haicheng, China
Current Conditions -  °F | °C
As of 5:30 AM on Friday 24 Oct 2014 (Local Time) from ZYTX Reporting Station
Overcast Overcast  
Wind Chill: 64°   Ceiling: 3300
Heat Index: 64°   Visibility: 4mi
Dew Point: 50°   Wind: 9mph
Humidity: 59%   Direction: 180°S
Pressure: 29.83"   Gusts: NA
Location:  40.86°N, 122.74°E
Report Text: ZYTX 232130Z 18004MPS 6000 OVC033 18/10 Q1010 NOSIG
Loading
Personal Weather Stations






























Interactive Weather Map
Tropical Storm Tracking
New forecast layout! Learn more

10-Day Weather Forecast

Advertisements
Track Severe Weather on mobile